sensor_id;sensor_type;location;lat;lon;timestamp;P1;durP1;ratioP1;P2;durP2;ratioP2
6955;SDS011;50345;51.136;16.886;2022-12-20T00:02:08;40.57;;;23.83;;
6955;SDS011;50345;51.136;16.886;2022-12-20T00:04:34;40.07;;;25.70;;
6955;SDS011;50345;51.136;16.886;2022-12-20T00:06:59;31.73;;;20.90;;
6955;SDS011;50345;51.136;16.886;2022-12-20T00:09:25;35.13;;;22.17;;
6955;SDS011;50345;51.136;16.886;2022-12-20T00:11:51;38.78;;;21.33;;
6955;SDS011;50345;51.136;16.886;2022-12-20T00:14:17;44.03;;;23.47;;
6955;SDS011;50345;51.136;16.886;2022-12-20T00:16:43;40.23;;;22.37;;
6955;SDS011;50345;51.136;16.886;2022-12-20T00:19:09;35.83;;;22.20;;
6955;SDS011;50345;51.136;16.886;2022-12-20T00:21:35;38.50;;;23.98;;
6955;SDS011;50345;51.136;16.886;2022-12-20T00:24:02;36.95;;;22.58;;
6955;SDS011;50345;51.136;16.886;2022-12-20T00:26:29;33.55;;;21.58;;
6955;SDS011;50345;51.136;16.886;2022-12-20T00:28:56;38.45;;;25.20;;
6955;SDS011;50345;51.136;16.886;2022-12-20T00:31:23;42.00;;;27.65;;
6955;SDS011;50345;51.136;16.886;2022-12-20T00:33:51;35.88;;;23.42;;
6955;SDS011;50345;51.136;16.886;2022-12-20T00:36:18;36.95;;;23.00;;
6955;SDS011;50345;51.136;16.886;2022-12-20T00:38:46;35.17;;;22.05;;
6955;SDS011;50345;51.136;16.886;2022-12-20T00:41:14;30.75;;;18.77;;
6955;SDS011;50345;51.136;16.886;2022-12-20T00:43:44;32.83;;;20.75;;
6955;SDS011;50345;51.136;16.886;2022-12-20T00:46:10;29.63;;;19.98;;
6955;SDS011;50345;51.136;16.886;2022-12-20T00:48:37;33.97;;;20.52;;
6955;SDS011;50345;51.136;16.886;2022-12-20T00:51:04;30.52;;;18.10;;
6955;SDS011;50345;51.136;16.886;2022-12-20T00:53:35;33.08;;;19.50;;
6955;SDS011;50345;51.136;16.886;2022-12-20T00:56:02;26.67;;;19.40;;
6955;SDS011;50345;51.136;16.886;2022-12-20T00:58:30;34.45;;;21.25;;
6955;SDS011;50345;51.136;16.886;2022-12-20T01:00:57;29.05;;;18.00;;
6955;SDS011;50345;51.136;16.886;2022-12-20T01:03:23;28.83;;;19.10;;
6955;SDS011;50345;51.136;16.886;2022-12-20T01:05:50;36.08;;;21.90;;
6955;SDS011;50345;51.136;16.886;2022-12-20T01:08:21;28.30;;;19.05;;
6955;SDS011;50345;51.136;16.886;2022-12-20T01:10:57;30.08;;;20.25;;
6955;SDS011;50345;51.136;16.886;2022-12-20T01:13:44;31.73;;;19.25;;
6955;SDS011;50345;51.136;16.886;2022-12-20T01:16:13;27.38;;;16.98;;
6955;SDS011;50345;51.136;16.886;2022-12-20T01:18:49;27.23;;;17.88;;
6955;SDS011;50345;51.136;16.886;2022-12-20T01:21:17;26.02;;;18.38;;
6955;SDS011;50345;51.136;16.886;2022-12-20T01:23:45;26.10;;;18.23;;
6955;SDS011;50345;51.136;16.886;2022-12-20T01:26:12;28.55;;;17.58;;
6955;SDS011;50345;51.136;16.886;2022-12-20T01:28:41;25.42;;;18.17;;
6955;SDS011;50345;51.136;16.886;2022-12-20T01:31:09;27.10;;;15.73;;
6955;SDS011;50345;51.136;16.886;2022-12-20T01:33:36;28.42;;;18.20;;
6955;SDS011;50345;51.136;16.886;2022-12-20T01:36:06;22.88;;;14.95;;
6955;SDS011;50345;51.136;16.886;2022-12-20T01:38:34;24.00;;;16.33;;
6955;SDS011;50345;51.136;16.886;2022-12-20T01:41:00;24.07;;;16.30;;
6955;SDS011;50345;51.136;16.886;2022-12-20T01:46:14;24.27;;;16.85;;
6955;SDS011;50345;51.136;16.886;2022-12-20T01:48:40;24.00;;;18.52;;
6955;SDS011;50345;51.136;16.886;2022-12-20T01:51:09;25.45;;;18.33;;
6955;SDS011;50345;51.136;16.886;2022-12-20T01:53:35;26.20;;;16.40;;
6955;SDS011;50345;51.136;16.886;2022-12-20T01:56:03;25.77;;;16.83;;
6955;SDS011;50345;51.136;16.886;2022-12-20T01:58:30;25.88;;;17.38;;
6955;SDS011;50345;51.136;16.886;2022-12-20T02:00:57;26.48;;;16.63;;
6955;SDS011;50345;51.136;16.886;2022-12-20T02:03:22;23.27;;;16.40;;
6955;SDS011;50345;51.136;16.886;2022-12-20T02:05:49;24.33;;;15.93;;
6955;SDS011;50345;51.136;16.886;2022-12-20T02:08:15;26.90;;;16.30;;
6955;SDS011;50345;51.136;16.886;2022-12-20T02:13:39;22.98;;;15.70;;
6955;SDS011;50345;51.136;16.886;2022-12-20T02:16:36;26.50;;;15.95;;
6955;SDS011;50345;51.136;16.886;2022-12-20T02:22:00;21.17;;;15.75;;
6955;SDS011;50345;51.136;16.886;2022-12-20T02:25:13;23.77;;;15.75;;
6955;SDS011;50345;51.136;16.886;2022-12-20T02:27:31;26.17;;;15.82;;
6955;SDS011;50345;51.136;16.886;2022-12-20T02:30:15;22.27;;;14.50;;
6955;SDS011;50345;51.136;16.886;2022-12-20T02:32:47;22.13;;;15.48;;
6955;SDS011;50345;51.136;16.886;2022-12-20T02:35:29;23.23;;;15.57;;
6955;SDS011;50345;51.136;16.886;2022-12-20T02:37:58;21.20;;;15.48;;
6955;SDS011;50345;51.136;16.886;2022-12-20T02:40:27;25.05;;;15.50;;
6955;SDS011;50345;51.136;16.886;2022-12-20T02:42:59;25.13;;;16.98;;
6955;SDS011;50345;51.136;16.886;2022-12-20T02:45:30;22.67;;;14.65;;
6955;SDS011;50345;51.136;16.886;2022-12-20T02:47:59;21.95;;;15.90;;
6955;SDS011;50345;51.136;16.886;2022-12-20T02:50:30;24.27;;;16.73;;
6955;SDS011;50345;51.136;16.886;2022-12-20T02:53:00;23.73;;;14.73;;
6955;SDS011;50345;51.136;16.886;2022-12-20T02:55:30;27.55;;;18.00;;
6955;SDS011;50345;51.136;16.886;2022-12-20T02:58:18;25.23;;;16.45;;
6955;SDS011;50345;51.136;16.886;2022-12-20T03:00:50;25.48;;;15.30;;
6955;SDS011;50345;51.136;16.886;2022-12-20T03:03:18;24.33;;;15.73;;
6955;SDS011;50345;51.136;16.886;2022-12-20T03:05:48;21.15;;;15.43;;
6955;SDS011;50345;51.136;16.886;2022-12-20T03:08:16;21.23;;;15.18;;
6955;SDS011;50345;51.136;16.886;2022-12-20T03:10:41;23.47;;;17.17;;
6955;SDS011;50345;51.136;16.886;2022-12-20T03:13:08;23.48;;;15.35;;
6955;SDS011;50345;51.136;16.886;2022-12-20T03:15:33;26.48;;;15.43;;
6955;SDS011;50345;51.136;16.886;2022-12-20T03:17:59;26.17;;;16.40;;
6955;SDS011;50345;51.136;16.886;2022-12-20T03:20:25;22.43;;;15.07;;
6955;SDS011;50345;51.136;16.886;2022-12-20T03:22:50;20.57;;;14.40;;
6955;SDS011;50345;51.136;16.886;2022-12-20T03:25:16;21.87;;;14.43;;
6955;SDS011;50345;51.136;16.886;2022-12-20T03:27:42;27.93;;;15.80;;
6955;SDS011;50345;51.136;16.886;2022-12-20T03:30:07;26.83;;;14.10;;
6955;SDS011;50345;51.136;16.886;2022-12-20T03:32:33;26.48;;;17.17;;
6955;SDS011;50345;51.136;16.886;2022-12-20T03:34:59;25.57;;;15.40;;
6955;SDS011;50345;51.136;16.886;2022-12-20T03:37:24;30.53;;;16.67;;
6955;SDS011;50345;51.136;16.886;2022-12-20T03:39:50;20.13;;;15.00;;
6955;SDS011;50345;51.136;16.886;2022-12-20T03:42:15;24.83;;;15.83;;
6955;SDS011;50345;51.136;16.886;2022-12-20T03:44:41;24.83;;;14.83;;
6955;SDS011;50345;51.136;16.886;2022-12-20T03:47:06;24.60;;;16.27;;
6955;SDS011;50345;51.136;16.886;2022-12-20T03:49:32;22.63;;;15.57;;
6955;SDS011;50345;51.136;16.886;2022-12-20T03:51:57;19.60;;;14.00;;
6955;SDS011;50345;51.136;16.886;2022-12-20T03:54:23;20.70;;;13.90;;
6955;SDS011;50345;51.136;16.886;2022-12-20T03:56:49;27.00;;;14.90;;
6955;SDS011;50345;51.136;16.886;2022-12-20T03:59:15;20.27;;;14.20;;
6955;SDS011;50345;51.136;16.886;2022-12-20T04:01:40;22.20;;;14.70;;
6955;SDS011;50345;51.136;16.886;2022-12-20T04:04:06;21.13;;;15.00;;
6955;SDS011;50345;51.136;16.886;2022-12-20T04:06:34;19.20;;;13.85;;
6955;SDS011;50345;51.136;16.886;2022-12-20T04:08:59;26.23;;;15.10;;
6955;SDS011;50345;51.136;16.886;2022-12-20T04:11:25;20.83;;;12.57;;
6955;SDS011;50345;51.136;16.886;2022-12-20T04:13:51;23.93;;;15.77;;
6955;SDS011;50345;51.136;16.886;2022-12-20T04:16:19;24.70;;;15.50;;
6955;SDS011;50345;51.136;16.886;2022-12-20T04:18:46;22.33;;;16.17;;
6955;SDS011;50345;51.136;16.886;2022-12-20T04:21:12;24.77;;;15.07;;
6955;SDS011;50345;51.136;16.886;2022-12-20T04:23:39;19.02;;;14.07;;
6955;SDS011;50345;51.136;16.886;2022-12-20T04:26:06;22.08;;;14.00;;
6955;SDS011;50345;51.136;16.886;2022-12-20T04:28:33;25.52;;;17.00;;
6955;SDS011;50345;51.136;16.886;2022-12-20T04:30:59;23.30;;;16.38;;
6955;SDS011;50345;51.136;16.886;2022-12-20T04:33:26;26.83;;;17.20;;
6955;SDS011;50345;51.136;16.886;2022-12-20T04:35:52;32.28;;;22.08;;
6955;SDS011;50345;51.136;16.886;2022-12-20T04:38:18;32.25;;;23.80;;
6955;SDS011;50345;51.136;16.886;2022-12-20T04:40:47;30.52;;;22.05;;
6955;SDS011;50345;51.136;16.886;2022-12-20T04:43:14;23.70;;;17.10;;
6955;SDS011;50345;51.136;16.886;2022-12-20T04:45:40;29.95;;;17.45;;
6955;SDS011;50345;51.136;16.886;2022-12-20T04:48:05;29.70;;;18.00;;
6955;SDS011;50345;51.136;16.886;2022-12-20T04:50:31;23.00;;;15.00;;
6955;SDS011;50345;51.136;16.886;2022-12-20T04:52:56;24.90;;;17.30;;
6955;SDS011;50345;51.136;16.886;2022-12-20T04:55:41;34.92;;;17.60;;
6955;SDS011;50345;51.136;16.886;2022-12-20T04:58:06;27.00;;;18.57;;
6955;SDS011;50345;51.136;16.886;2022-12-20T05:00:32;31.57;;;18.90;;
6955;SDS011;50345;51.136;16.886;2022-12-20T05:02:58;28.05;;;17.77;;
6955;SDS011;50345;51.136;16.886;2022-12-20T05:05:25;26.75;;;17.40;;
6955;SDS011;50345;51.136;16.886;2022-12-20T05:07:51;21.85;;;15.93;;
6955;SDS011;50345;51.136;16.886;2022-12-20T05:10:17;25.95;;;18.17;;
6955;SDS011;50345;51.136;16.886;2022-12-20T05:12:43;30.48;;;19.45;;
6955;SDS011;50345;51.136;16.886;2022-12-20T05:15:09;30.13;;;18.90;;
6955;SDS011;50345;51.136;16.886;2022-12-20T05:17:36;26.45;;;16.30;;
6955;SDS011;50345;51.136;16.886;2022-12-20T05:20:01;23.43;;;15.10;;
6955;SDS011;50345;51.136;16.886;2022-12-20T05:22:28;26.63;;;16.65;;
6955;SDS011;50345;51.136;16.886;2022-12-20T05:25:12;25.92;;;17.27;;
6955;SDS011;50345;51.136;16.886;2022-12-20T05:27:57;32.20;;;17.42;;
6955;SDS011;50345;51.136;16.886;2022-12-20T05:30:22;28.40;;;16.47;;
6955;SDS011;50345;51.136;16.886;2022-12-20T05:32:48;21.08;;;16.60;;
6955;SDS011;50345;51.136;16.886;2022-12-20T05:35:14;26.90;;;18.45;;
6955;SDS011;50345;51.136;16.886;2022-12-20T05:37:40;26.77;;;17.17;;
6955;SDS011;50345;51.136;16.886;2022-12-20T05:40:06;31.93;;;19.33;;
6955;SDS011;50345;51.136;16.886;2022-12-20T05:42:32;35.30;;;17.98;;
6955;SDS011;50345;51.136;16.886;2022-12-20T05:44:58;23.03;;;15.87;;
6955;SDS011;50345;51.136;16.886;2022-12-20T05:47:24;27.13;;;17.67;;
6955;SDS011;50345;51.136;16.886;2022-12-20T05:49:51;22.88;;;14.68;;
6955;SDS011;50345;51.136;16.886;2022-12-20T05:52:16;25.87;;;15.87;;
6955;SDS011;50345;51.136;16.886;2022-12-20T05:54:42;24.47;;;16.27;;
6955;SDS011;50345;51.136;16.886;2022-12-20T05:57:07;31.70;;;17.67;;
6955;SDS011;50345;51.136;16.886;2022-12-20T05:59:33;24.70;;;17.10;;
6955;SDS011;50345;51.136;16.886;2022-12-20T06:01:59;22.30;;;16.73;;
6955;SDS011;50345;51.136;16.886;2022-12-20T06:04:24;27.30;;;17.17;;
6955;SDS011;50345;51.136;16.886;2022-12-20T06:06:50;25.77;;;16.60;;
6955;SDS011;50345;51.136;16.886;2022-12-20T06:09:16;29.65;;;17.45;;
6955;SDS011;50345;51.136;16.886;2022-12-20T06:11:42;22.23;;;15.60;;
6955;SDS011;50345;51.136;16.886;2022-12-20T06:14:07;21.47;;;16.90;;
6955;SDS011;50345;51.136;16.886;2022-12-20T06:16:33;22.20;;;16.67;;
6955;SDS011;50345;51.136;16.886;2022-12-20T06:18:58;34.03;;;18.20;;
6955;SDS011;50345;51.136;16.886;2022-12-20T06:21:25;35.28;;;20.17;;
6955;SDS011;50345;51.136;16.886;2022-12-20T06:23:52;26.13;;;16.05;;
6955;SDS011;50345;51.136;16.886;2022-12-20T06:26:18;28.40;;;17.90;;
6955;SDS011;50345;51.136;16.886;2022-12-20T06:28:44;27.70;;;16.97;;
6955;SDS011;50345;51.136;16.886;2022-12-20T06:31:10;29.77;;;17.27;;
6955;SDS011;50345;51.136;16.886;2022-12-20T06:33:35;29.60;;;17.97;;
6955;SDS011;50345;51.136;16.886;2022-12-20T06:36:01;37.43;;;21.73;;
6955;SDS011;50345;51.136;16.886;2022-12-20T06:38:27;25.02;;;16.50;;
6955;SDS011;50345;51.136;16.886;2022-12-20T06:40:53;29.50;;;18.90;;
6955;SDS011;50345;51.136;16.886;2022-12-20T06:43:18;27.17;;;16.40;;
6955;SDS011;50345;51.136;16.886;2022-12-20T06:45:44;25.63;;;16.87;;
6955;SDS011;50345;51.136;16.886;2022-12-20T06:48:10;23.40;;;17.40;;
6955;SDS011;50345;51.136;16.886;2022-12-20T06:50:36;21.73;;;15.10;;
6955;SDS011;50345;51.136;16.886;2022-12-20T06:53:02;23.05;;;16.02;;
6955;SDS011;50345;51.136;16.886;2022-12-20T06:55:28;24.23;;;14.83;;
6955;SDS011;50345;51.136;16.886;2022-12-20T06:57:53;24.00;;;16.83;;
6955;SDS011;50345;51.136;16.886;2022-12-20T07:00:20;23.20;;;16.45;;
6955;SDS011;50345;51.136;16.886;2022-12-20T07:02:46;23.05;;;15.70;;
6955;SDS011;50345;51.136;16.886;2022-12-20T07:05:12;25.50;;;15.53;;
6955;SDS011;50345;51.136;16.886;2022-12-20T07:07:37;23.80;;;17.70;;
6955;SDS011;50345;51.136;16.886;2022-12-20T07:10:03;29.37;;;16.93;;
6955;SDS011;50345;51.136;16.886;2022-12-20T07:12:29;31.05;;;19.50;;
6955;SDS011;50345;51.136;16.886;2022-12-20T07:14:54;26.90;;;16.60;;
6955;SDS011;50345;51.136;16.886;2022-12-20T07:17:20;29.43;;;17.27;;
6955;SDS011;50345;51.136;16.886;2022-12-20T07:19:45;27.27;;;16.70;;
6955;SDS011;50345;51.136;16.886;2022-12-20T07:22:11;26.37;;;17.57;;
6955;SDS011;50345;51.136;16.886;2022-12-20T07:24:37;25.50;;;16.83;;
6955;SDS011;50345;51.136;16.886;2022-12-20T07:27:03;27.52;;;17.00;;
6955;SDS011;50345;51.136;16.886;2022-12-20T07:29:28;26.63;;;17.60;;
6955;SDS011;50345;51.136;16.886;2022-12-20T07:31:54;32.27;;;18.83;;
6955;SDS011;50345;51.136;16.886;2022-12-20T07:34:19;30.60;;;19.53;;
6955;SDS011;50345;51.136;16.886;2022-12-20T07:36:45;28.77;;;19.17;;
6955;SDS011;50345;51.136;16.886;2022-12-20T07:39:11;33.60;;;20.30;;
6955;SDS011;50345;51.136;16.886;2022-12-20T07:41:36;34.80;;;20.57;;
6955;SDS011;50345;51.136;16.886;2022-12-20T07:44:02;32.67;;;21.70;;
6955;SDS011;50345;51.136;16.886;2022-12-20T07:46:28;28.15;;;20.15;;
6955;SDS011;50345;51.136;16.886;2022-12-20T07:48:54;37.85;;;23.08;;
6955;SDS011;50345;51.136;16.886;2022-12-20T07:51:22;33.55;;;20.73;;
6955;SDS011;50345;51.136;16.886;2022-12-20T07:53:55;33.15;;;22.48;;
6955;SDS011;50345;51.136;16.886;2022-12-20T07:56:25;31.58;;;20.95;;
6955;SDS011;50345;51.136;16.886;2022-12-20T07:58:53;32.92;;;21.92;;
6955;SDS011;50345;51.136;16.886;2022-12-20T08:01:22;35.28;;;24.13;;
6955;SDS011;50345;51.136;16.886;2022-12-20T08:03:51;42.00;;;26.55;;
6955;SDS011;50345;51.136;16.886;2022-12-20T08:06:20;37.20;;;26.42;;
6955;SDS011;50345;51.136;16.886;2022-12-20T08:08:50;42.33;;;27.03;;
6955;SDS011;50345;51.136;16.886;2022-12-20T08:11:19;46.75;;;28.48;;
6955;SDS011;50345;51.136;16.886;2022-12-20T08:13:47;47.47;;;30.40;;
6955;SDS011;50345;51.136;16.886;2022-12-20T08:16:14;43.83;;;28.67;;
6955;SDS011;50345;51.136;16.886;2022-12-20T08:18:40;46.27;;;30.47;;
6955;SDS011;50345;51.136;16.886;2022-12-20T08:21:05;44.37;;;31.10;;
6955;SDS011;50345;51.136;16.886;2022-12-20T08:23:31;47.07;;;34.53;;
6955;SDS011;50345;51.136;16.886;2022-12-20T08:25:59;56.57;;;38.37;;
6955;SDS011;50345;51.136;16.886;2022-12-20T08:28:25;50.83;;;33.38;;
6955;SDS011;50345;51.136;16.886;2022-12-20T08:30:50;44.10;;;30.80;;
6955;SDS011;50345;51.136;16.886;2022-12-20T08:33:16;44.27;;;28.47;;
6955;SDS011;50345;51.136;16.886;2022-12-20T08:35:41;48.47;;;29.30;;
6955;SDS011;50345;51.136;16.886;2022-12-20T08:38:07;66.63;;;34.23;;
6955;SDS011;50345;51.136;16.886;2022-12-20T08:40:33;68.47;;;32.90;;
6955;SDS011;50345;51.136;16.886;2022-12-20T08:42:58;45.57;;;25.67;;
6955;SDS011;50345;51.136;16.886;2022-12-20T08:45:24;42.03;;;25.60;;
6955;SDS011;50345;51.136;16.886;2022-12-20T08:47:49;50.17;;;25.70;;
6955;SDS011;50345;51.136;16.886;2022-12-20T08:50:15;53.67;;;29.10;;
6955;SDS011;50345;51.136;16.886;2022-12-20T08:52:40;44.63;;;25.07;;
6955;SDS011;50345;51.136;16.886;2022-12-20T08:55:06;44.70;;;22.17;;
6955;SDS011;50345;51.136;16.886;2022-12-20T08:57:32;33.60;;;21.00;;
6955;SDS011;50345;51.136;16.886;2022-12-20T08:59:57;32.50;;;19.67;;
6955;SDS011;50345;51.136;16.886;2022-12-20T09:02:23;33.00;;;21.70;;
6955;SDS011;50345;51.136;16.886;2022-12-20T09:04:49;30.70;;;20.67;;
6955;SDS011;50345;51.136;16.886;2022-12-20T09:07:15;32.10;;;21.50;;
6955;SDS011;50345;51.136;16.886;2022-12-20T09:09:40;31.77;;;21.93;;
6955;SDS011;50345;51.136;16.886;2022-12-20T09:12:06;29.60;;;20.23;;
6955;SDS011;50345;51.136;16.886;2022-12-20T09:14:31;32.23;;;19.80;;
6955;SDS011;50345;51.136;16.886;2022-12-20T09:16:57;27.40;;;19.50;;
6955;SDS011;50345;51.136;16.886;2022-12-20T09:19:23;26.33;;;18.60;;
6955;SDS011;50345;51.136;16.886;2022-12-20T09:21:48;32.03;;;20.27;;
6955;SDS011;50345;51.136;16.886;2022-12-20T09:24:14;31.20;;;20.70;;
6955;SDS011;50345;51.136;16.886;2022-12-20T09:26:39;34.20;;;20.77;;
6955;SDS011;50345;51.136;16.886;2022-12-20T09:29:05;31.37;;;19.20;;
6955;SDS011;50345;51.136;16.886;2022-12-20T09:31:31;30.90;;;19.73;;
6955;SDS011;50345;51.136;16.886;2022-12-20T09:33:57;28.17;;;20.40;;
6955;SDS011;50345;51.136;16.886;2022-12-20T09:36:23;32.00;;;21.75;;
6955;SDS011;50345;51.136;16.886;2022-12-20T09:38:50;34.53;;;21.65;;
6955;SDS011;50345;51.136;16.886;2022-12-20T09:41:32;33.03;;;20.97;;
6955;SDS011;50345;51.136;16.886;2022-12-20T09:44:44;34.88;;;21.45;;
6955;SDS011;50345;51.136;16.886;2022-12-20T09:46:54;27.08;;;19.02;;
6955;SDS011;50345;51.136;16.886;2022-12-20T09:49:25;28.27;;;19.40;;
6955;SDS011;50345;51.136;16.886;2022-12-20T09:54:55;30.75;;;21.70;;
6955;SDS011;50345;51.136;16.886;2022-12-20T09:57:52;34.20;;;19.25;;
6955;SDS011;50345;51.136;16.886;2022-12-20T10:00:46;34.97;;;22.13;;
6955;SDS011;50345;51.136;16.886;2022-12-20T10:03:18;34.88;;;22.50;;
6955;SDS011;50345;51.136;16.886;2022-12-20T10:05:59;33.42;;;20.90;;
6955;SDS011;50345;51.136;16.886;2022-12-20T10:08:56;33.25;;;21.20;;
6955;SDS011;50345;51.136;16.886;2022-12-20T10:17:10;36.22;;;22.52;;
6955;SDS011;50345;51.136;16.886;2022-12-20T10:22:32;33.83;;;23.13;;
6955;SDS011;50345;51.136;16.886;2022-12-20T10:25:12;34.08;;;20.45;;
6955;SDS011;50345;51.136;16.886;2022-12-20T10:27:44;37.03;;;22.80;;
6955;SDS011;50345;51.136;16.886;2022-12-20T10:30:16;31.55;;;21.42;;
6955;SDS011;50345;51.136;16.886;2022-12-20T10:32:43;32.13;;;20.25;;
6955;SDS011;50345;51.136;16.886;2022-12-20T10:43:20;28.75;;;20.30;;
6955;SDS011;50345;51.136;16.886;2022-12-20T10:46:00;31.48;;;18.80;;
6955;SDS011;50345;51.136;16.886;2022-12-20T10:50:58;35.97;;;21.50;;
6955;SDS011;50345;51.136;16.886;2022-12-20T10:53:25;34.35;;;21.77;;
6955;SDS011;50345;51.136;16.886;2022-12-20T10:55:53;34.00;;;21.98;;
6955;SDS011;50345;51.136;16.886;2022-12-20T10:58:35;39.03;;;23.20;;
6955;SDS011;50345;51.136;16.886;2022-12-20T11:06:20;37.97;;;22.48;;
6955;SDS011;50345;51.136;16.886;2022-12-20T11:08:47;31.17;;;21.05;;
6955;SDS011;50345;51.136;16.886;2022-12-20T11:11:15;34.63;;;23.45;;
6955;SDS011;50345;51.136;16.886;2022-12-20T11:13:41;31.20;;;20.90;;
6955;SDS011;50345;51.136;16.886;2022-12-20T11:16:32;35.47;;;24.25;;
6955;SDS011;50345;51.136;16.886;2022-12-20T11:19:02;33.88;;;22.25;;
6955;SDS011;50345;51.136;16.886;2022-12-20T11:35:21;30.42;;;23.42;;
6955;SDS011;50345;51.136;16.886;2022-12-20T11:41:05;36.38;;;23.85;;
6955;SDS011;50345;51.136;16.886;2022-12-20T11:49:22;33.75;;;22.55;;
6955;SDS011;50345;51.136;16.886;2022-12-20T11:52:16;33.03;;;22.40;;
6955;SDS011;50345;51.136;16.886;2022-12-20T11:55:17;32.78;;;22.23;;
6955;SDS011;50345;51.136;16.886;2022-12-20T11:57:49;34.30;;;23.00;;
6955;SDS011;50345;51.136;16.886;2022-12-20T12:00:28;39.88;;;24.45;;
6955;SDS011;50345;51.136;16.886;2022-12-20T12:02:58;36.05;;;24.30;;
6955;SDS011;50345;51.136;16.886;2022-12-20T12:05:54;37.70;;;25.33;;
6955;SDS011;50345;51.136;16.886;2022-12-20T12:09:07;34.28;;;21.63;;
6955;SDS011;50345;51.136;16.886;2022-12-20T12:11:30;31.02;;;21.58;;
6955;SDS011;50345;51.136;16.886;2022-12-20T12:13:59;33.50;;;22.00;;
6955;SDS011;50345;51.136;16.886;2022-12-20T12:16:28;42.35;;;25.65;;
6955;SDS011;50345;51.136;16.886;2022-12-20T12:19:01;52.03;;;34.22;;
6955;SDS011;50345;51.136;16.886;2022-12-20T12:21:30;50.00;;;31.08;;
6955;SDS011;50345;51.136;16.886;2022-12-20T12:26:45;54.45;;;35.85;;
6955;SDS011;50345;51.136;16.886;2022-12-20T12:29:12;48.73;;;30.00;;
6955;SDS011;50345;51.136;16.886;2022-12-20T12:42:55;47.50;;;31.02;;
6955;SDS011;50345;51.136;16.886;2022-12-20T12:45:47;43.28;;;28.80;;
6955;SDS011;50345;51.136;16.886;2022-12-20T12:48:25;40.47;;;26.90;;
6955;SDS011;50345;51.136;16.886;2022-12-20T12:51:00;43.97;;;26.50;;
6955;SDS011;50345;51.136;16.886;2022-12-20T12:54:01;40.40;;;26.23;;
6955;SDS011;50345;51.136;16.886;2022-12-20T13:01:51;49.17;;;31.00;;
6955;SDS011;50345;51.136;16.886;2022-12-20T13:09:20;68.75;;;39.63;;
6955;SDS011;50345;51.136;16.886;2022-12-20T13:11:49;49.85;;;30.85;;
6955;SDS011;50345;51.136;16.886;2022-12-20T13:16:44;47.83;;;28.20;;
6955;SDS011;50345;51.136;16.886;2022-12-20T13:19:14;48.65;;;29.52;;
6955;SDS011;50345;51.136;16.886;2022-12-20T13:21:54;50.70;;;30.33;;
6955;SDS011;50345;51.136;16.886;2022-12-20T13:30:35;40.70;;;24.48;;
6955;SDS011;50345;51.136;16.886;2022-12-20T13:32:55;43.50;;;27.50;;
6955;SDS011;50345;51.136;16.886;2022-12-20T13:40:20;46.33;;;25.60;;
6955;SDS011;50345;51.136;16.886;2022-12-20T13:42:56;41.20;;;26.65;;
6955;SDS011;50345;51.136;16.886;2022-12-20T13:45:26;44.28;;;25.30;;
6955;SDS011;50345;51.136;16.886;2022-12-20T13:47:56;41.67;;;26.35;;
6955;SDS011;50345;51.136;16.886;2022-12-20T13:52:59;43.80;;;28.60;;
6955;SDS011;50345;51.136;16.886;2022-12-20T13:57:51;42.43;;;27.60;;
6955;SDS011;50345;51.136;16.886;2022-12-20T14:00:22;41.22;;;27.00;;
6955;SDS011;50345;51.136;16.886;2022-12-20T14:02:49;39.80;;;26.23;;
6955;SDS011;50345;51.136;16.886;2022-12-20T14:05:23;40.80;;;28.10;;
6955;SDS011;50345;51.136;16.886;2022-12-20T14:07:58;40.42;;;26.55;;
6955;SDS011;50345;51.136;16.886;2022-12-20T14:10:24;46.17;;;25.80;;
6955;SDS011;50345;51.136;16.886;2022-12-20T14:12:53;45.78;;;23.90;;
6955;SDS011;50345;51.136;16.886;2022-12-20T14:15:24;39.58;;;26.48;;
6955;SDS011;50345;51.136;16.886;2022-12-20T14:17:49;39.60;;;25.73;;
6955;SDS011;50345;51.136;16.886;2022-12-20T14:20:15;48.17;;;28.10;;
6955;SDS011;50345;51.136;16.886;2022-12-20T14:25:31;56.78;;;32.95;;
6955;SDS011;50345;51.136;16.886;2022-12-20T14:31:02;53.95;;;31.05;;
6955;SDS011;50345;51.136;16.886;2022-12-20T14:33:32;41.65;;;27.55;;
6955;SDS011;50345;51.136;16.886;2022-12-20T14:36:10;42.85;;;27.17;;
6955;SDS011;50345;51.136;16.886;2022-12-20T14:38:44;37.40;;;24.77;;
6955;SDS011;50345;51.136;16.886;2022-12-20T14:43:56;37.88;;;26.13;;
6955;SDS011;50345;51.136;16.886;2022-12-20T14:46:25;41.40;;;24.92;;
6955;SDS011;50345;51.136;16.886;2022-12-20T14:49:04;41.00;;;27.75;;
6955;SDS011;50345;51.136;16.886;2022-12-20T14:51:43;45.30;;;27.58;;
6955;SDS011;50345;51.136;16.886;2022-12-20T14:54:14;40.25;;;26.08;;
6955;SDS011;50345;51.136;16.886;2022-12-20T14:56:46;34.17;;;26.48;;
6955;SDS011;50345;51.136;16.886;2022-12-20T14:59:15;45.03;;;28.38;;
6955;SDS011;50345;51.136;16.886;2022-12-20T15:01:48;50.60;;;30.40;;
6955;SDS011;50345;51.136;16.886;2022-12-20T15:04:31;46.63;;;29.58;;
6955;SDS011;50345;51.136;16.886;2022-12-20T15:07:00;40.28;;;26.00;;
6955;SDS011;50345;51.136;16.886;2022-12-20T15:09:27;40.20;;;27.33;;
6955;SDS011;50345;51.136;16.886;2022-12-20T15:11:53;51.53;;;27.50;;
6955;SDS011;50345;51.136;16.886;2022-12-20T15:17:11;65.07;;;34.42;;
6955;SDS011;50345;51.136;16.886;2022-12-20T15:19:39;55.75;;;33.47;;
6955;SDS011;50345;51.136;16.886;2022-12-20T15:22:04;41.55;;;29.33;;
6955;SDS011;50345;51.136;16.886;2022-12-20T15:24:33;42.70;;;25.52;;
6955;SDS011;50345;51.136;16.886;2022-12-20T15:26:58;33.77;;;23.20;;
6955;SDS011;50345;51.136;16.886;2022-12-20T15:29:24;38.93;;;24.03;;
6955;SDS011;50345;51.136;16.886;2022-12-20T15:31:52;44.10;;;26.55;;
6955;SDS011;50345;51.136;16.886;2022-12-20T15:34:28;48.50;;;34.35;;
6955;SDS011;50345;51.136;16.886;2022-12-20T15:36:57;46.72;;;28.73;;
6955;SDS011;50345;51.136;16.886;2022-12-20T15:39:24;39.83;;;28.40;;
6955;SDS011;50345;51.136;16.886;2022-12-20T15:41:50;53.60;;;32.33;;
6955;SDS011;50345;51.136;16.886;2022-12-20T15:44:18;42.88;;;27.67;;
6955;SDS011;50345;51.136;16.886;2022-12-20T15:46:46;43.95;;;31.38;;
6955;SDS011;50345;51.136;16.886;2022-12-20T15:49:13;38.17;;;28.02;;
6955;SDS011;50345;51.136;16.886;2022-12-20T15:51:43;38.83;;;24.48;;
6955;SDS011;50345;51.136;16.886;2022-12-20T15:54:15;41.67;;;23.35;;
6955;SDS011;50345;51.136;16.886;2022-12-20T15:56:48;48.45;;;30.98;;
6955;SDS011;50345;51.136;16.886;2022-12-20T15:59:14;49.60;;;28.65;;
6955;SDS011;50345;51.136;16.886;2022-12-20T16:01:40;38.63;;;26.87;;
6955;SDS011;50345;51.136;16.886;2022-12-20T16:04:06;41.80;;;26.87;;
6955;SDS011;50345;51.136;16.886;2022-12-20T16:06:36;34.38;;;23.05;;
6955;SDS011;50345;51.136;16.886;2022-12-20T16:09:02;41.50;;;28.90;;
6955;SDS011;50345;51.136;16.886;2022-12-20T16:11:28;36.43;;;22.70;;
6955;SDS011;50345;51.136;16.886;2022-12-20T16:13:55;45.85;;;28.08;;
6955;SDS011;50345;51.136;16.886;2022-12-20T16:16:23;44.15;;;30.83;;
6955;SDS011;50345;51.136;16.886;2022-12-20T16:18:51;49.88;;;41.33;;
6955;SDS011;50345;51.136;16.886;2022-12-20T16:21:23;46.45;;;31.27;;
6955;SDS011;50345;51.136;16.886;2022-12-20T16:23:50;49.42;;;35.00;;
6955;SDS011;50345;51.136;16.886;2022-12-20T16:26:18;49.78;;;28.70;;